LSZS/SMV METAR and TAF weather

Enter ICAO airport designator
Station Type Date Time Source
LSZS METAR 2022/01/25 05:20 UTC NOAA

LSZS 250520Z AUTO VRB01KT 9999 NCD M14/M15 Q1030


Station Type Date Time Source
LSZS Decoded METAR 2022/01/25 05:20 UTC NOAA

Station name not available
Jan 25, 2022 - 12:20 AM EST / 2022.01.25 0520 UTC
Wind: Variable at 1 MPH (1 KT):0
Visibility: greater than 7 mile(s):0
Temperature: 6 F (-14 C)
Dew Point: 5 F (-15 C)
Relative Humidity: 92%
Pressure (altimeter): 30.42 in. Hg (1030 hPa)
ob: LSZS 250520Z AUTO VRB01KT 9999 NCD M14/M15 Q1030
cycle: 5

Station Type Date Time Source
LSZS TAF 2014/12/22 20:03 UTC NOAA

TAF
AMD LSZS 222054Z 2220/2224 CNL

Example: see airport list